Time;durP1;ratioP1;P1;durP2;ratioP2;P2;SDS_P1;SDS_P2;PMS_P1;PMS_P2;Temp;Humidity;BMP_temperature;BMP_pressure;BME280_temperature;BME280_humidity;BME280_pressure;Samples;Min_cycle;Max_cycle;Signal;HPM_P1;HPM_P2
2023/07/20 00:00:13;;;;;;;9.43;5.43;;;;;;;;;;781185;179;921836;-55
2023/07/20 00:02:38;;;;;;;7.50;4.70;;;;;;;;;;770103;179;919519;-54
2023/07/20 00:05:03;;;;;;;10.20;6.20;;;;;;;;;;772350;179;920607;-57
2023/07/20 00:07:29;;;;;;;8.70;4.70;;;;;;;;;;777809;179;919441;-56
2023/07/20 00:09:55;;;;;;;11.53;5.77;;;;;;;;;;773950;180;919822;-57
2023/07/20 00:12:21;;;;;;;10.03;5.70;;;;;;;;;;774505;179;918135;-55
2023/07/20 00:14:47;;;;;;;8.70;5.53;;;;;;;;;;774962;180;910322;-57
2023/07/20 00:17:13;;;;;;;12.93;5.60;;;;;;;;;;776691;180;919122;-54
2023/07/20 00:19:38;;;;;;;8.23;5.00;;;;;;;;;;773223;180;1126966;-57
2023/07/20 00:22:05;;;;;;;10.53;5.53;;;;;;;;;;776640;180;919461;-55
2023/07/20 00:24:30;;;;;;;13.63;5.30;;;;;;;;;;775109;178;918247;-56
2023/07/20 00:26:56;;;;;;;9.17;5.40;;;;;;;;;;767665;179;925353;-54
2023/07/20 00:29:22;;;;;;;8.20;5.10;;;;;;;;;;772156;179;938383;-54
2023/07/20 00:31:48;;;;;;;8.03;5.17;;;;;;;;;;779818;180;918490;-55
2023/07/20 00:34:14;;;;;;;8.47;5.40;;;;;;;;;;770208;180;919565;-57
2023/07/20 00:36:40;;;;;;;7.77;5.50;;;;;;;;;;772120;179;921727;-55
2023/07/20 00:39:05;;;;;;;6.20;5.30;;;;;;;;;;769607;180;919615;-57
2023/07/20 00:41:32;;;;;;;10.93;4.87;;;;;;;;;;771111;179;918888;-57
2023/07/20 00:43:57;;;;;;;8.03;5.40;;;;;;;;;;768973;180;919790;-54
2023/07/20 00:46:23;;;;;;;8.90;5.50;;;;;;;;;;765911;180;821326;-63
2023/07/20 00:48:49;;;;;;;8.40;5.47;;;;;;;;;;777742;179;919950;-54
2023/07/20 00:51:15;;;;;;;7.47;4.70;;;;;;;;;;771460;179;919124;-56
2023/07/20 00:53:40;;;;;;;8.30;6.27;;;;;;;;;;775020;179;918750;-55
2023/07/20 00:56:08;;;;;;;7.60;5.40;;;;;;;;;;778837;179;919298;-55
2023/07/20 00:58:32;;;;;;;6.60;4.70;;;;;;;;;;775091;179;923472;-54
2023/07/20 01:00:58;;;;;;;7.80;4.97;;;;;;;;;;769712;180;861296;-57
2023/07/20 01:03:24;;;;;;;11.50;5.60;;;;;;;;;;780016;180;817208;-55
2023/07/20 01:05:52;;;;;;;6.23;4.50;;;;;;;;;;774251;179;877436;-56
2023/07/20 01:08:18;;;;;;;7.93;5.37;;;;;;;;;;767615;181;913428;-56
2023/07/20 01:10:45;;;;;;;8.30;5.20;;;;;;;;;;772549;179;915541;-55
2023/07/20 01:13:10;;;;;;;10.20;5.30;;;;;;;;;;773387;180;857175;-57
2023/07/20 01:15:36;;;;;;;10.40;5.40;;;;;;;;;;772467;179;916133;-54
2023/07/20 01:18:04;;;;;;;7.50;5.00;;;;;;;;;;775296;179;878930;-57
2023/07/20 01:20:27;;;;;;;8.83;6.13;;;;;;;;;;780685;178;921350;-58
2023/07/20 01:22:57;;;;;;;7.17;4.43;;;;;;;;;;777531;180;919180;-57
2023/07/20 01:25:29;;;;;;;6.90;4.67;;;;;;;;;;772786;180;920281;-56
2023/07/20 01:28:09;;;;;;;7.60;4.93;;;;;;;;;;774091;180;919723;-58
2023/07/20 01:30:54;;;;;;;7.43;4.45;;;;;;;;;;771294;181;919319;-55
2023/07/20 01:33:18;;;;;;;6.60;4.57;;;;;;;;;;775283;178;919390;-55
2023/07/20 01:35:44;;;;;;;7.90;4.43;;;;;;;;;;774516;180;920724;-58
2023/07/20 01:38:09;;;;;;;6.30;3.83;;;;;;;;;;774793;180;921760;-58
2023/07/20 01:40:35;;;;;;;6.63;4.30;;;;;;;;;;776836;180;919586;-58
2023/07/20 01:43:01;;;;;;;5.67;3.83;;;;;;;;;;778991;180;818073;-56
2023/07/20 01:45:27;;;;;;;10.93;4.83;;;;;;;;;;772699;179;919669;-56
2023/07/20 01:47:53;;;;;;;7.57;4.07;;;;;;;;;;773172;179;899322;-58
2023/07/20 01:50:19;;;;;;;9.87;5.17;;;;;;;;;;772790;181;921272;-56
2023/07/20 01:52:44;;;;;;;11.90;4.30;;;;;;;;;;776326;180;875351;-55
2023/07/20 01:55:10;;;;;;;7.60;4.33;;;;;;;;;;769447;179;919413;-58
2023/07/20 01:57:36;;;;;;;8.13;4.28;;;;;;;;;;771221;180;920091;-56
2023/07/20 02:00:02;;;;;;;9.83;4.87;;;;;;;;;;779462;181;920429;-56
2023/07/20 02:02:28;;;;;;;7.33;5.07;;;;;;;;;;769247;179;920500;-56
2023/07/20 02:04:54;;;;;;;7.00;4.13;;;;;;;;;;770326;180;919882;-57
2023/07/20 02:07:20;;;;;;;6.10;4.00;;;;;;;;;;778792;180;919466;-56
2023/07/20 02:09:45;;;;;;;6.30;4.00;;;;;;;;;;773289;179;920089;-57
2023/07/20 02:12:11;;;;;;;8.57;4.53;;;;;;;;;;773286;181;918977;-56
2023/07/20 02:14:37;;;;;;;17.17;5.13;;;;;;;;;;776053;179;917880;-56
2023/07/20 02:17:03;;;;;;;5.93;4.20;;;;;;;;;;774109;180;920962;-56
2023/07/20 02:19:29;;;;;;;11.33;4.80;;;;;;;;;;770373;179;919637;-56
2023/07/20 02:21:55;;;;;;;9.53;4.17;;;;;;;;;;773398;179;902937;-56
2023/07/20 02:24:21;;;;;;;7.20;4.50;;;;;;;;;;780890;178;859737;-58
2023/07/20 02:26:47;;;;;;;8.60;4.60;;;;;;;;;;772396;178;919732;-56
2023/07/20 02:29:12;;;;;;;5.87;3.93;;;;;;;;;;770577;180;895592;-56
2023/07/20 02:31:39;;;;;;;6.73;4.33;;;;;;;;;;776161;180;817122;-58
2023/07/20 02:34:04;;;;;;;9.23;5.33;;;;;;;;;;777987;178;919473;-56
2023/07/20 02:36:32;;;;;;;7.07;4.27;;;;;;;;;;771245;179;919453;-56
2023/07/20 02:38:56;;;;;;;9.80;5.60;;;;;;;;;;771982;179;934612;-55
2023/07/20 02:41:22;;;;;;;11.67;3.90;;;;;;;;;;774322;179;919500;-58
2023/07/20 02:43:48;;;;;;;8.23;4.27;;;;;;;;;;775507;179;919340;-58
2023/07/20 02:46:13;;;;;;;6.33;4.27;;;;;;;;;;773751;180;911259;-56
2023/07/20 02:48:39;;;;;;;7.97;4.20;;;;;;;;;;769302;180;913246;-58
2023/07/20 02:51:07;;;;;;;11.13;5.07;;;;;;;;;;766321;180;913848;-58
2023/07/20 02:53:31;;;;;;;8.70;4.20;;;;;;;;;;774519;180;911948;-55
2023/07/20 02:55:57;;;;;;;7.87;4.80;;;;;;;;;;779119;180;913106;-58
2023/07/20 02:58:23;;;;;;;6.47;4.60;;;;;;;;;;769293;180;920401;-55
2023/07/20 03:00:49;;;;;;;7.13;4.40;;;;;;;;;;774042;179;920694;-56
2023/07/20 03:03:14;;;;;;;12.20;5.87;;;;;;;;;;778062;180;818926;-58
2023/07/20 03:05:40;;;;;;;7.10;4.17;;;;;;;;;;770824;180;918566;-58
2023/07/20 03:08:06;;;;;;;10.70;4.63;;;;;;;;;;768498;179;920024;-57
2023/07/20 03:10:32;;;;;;;7.67;4.23;;;;;;;;;;775081;181;920006;-56
2023/07/20 03:12:58;;;;;;;8.97;4.40;;;;;;;;;;769138;181;817121;-58
2023/07/20 03:15:24;;;;;;;8.10;4.73;;;;;;;;;;766867;180;916058;-57
2023/07/20 03:17:51;;;;;;;6.73;4.53;;;;;;;;;;774318;179;919537;-58
2023/07/20 03:20:16;;;;;;;7.03;4.33;;;;;;;;;;773673;180;918878;-55
2023/07/20 03:22:41;;;;;;;6.03;3.73;;;;;;;;;;768380;179;918195;-58
2023/07/20 03:25:08;;;;;;;6.10;4.47;;;;;;;;;;767767;179;920471;-58
2023/07/20 03:27:33;;;;;;;5.43;3.73;;;;;;;;;;776052;179;918574;-58
2023/07/20 03:29:59;;;;;;;7.83;4.80;;;;;;;;;;771768;180;919658;-55
2023/07/20 03:32:25;;;;;;;6.72;4.22;;;;;;;;;;767472;181;919158;-55
2023/07/20 03:34:51;;;;;;;7.63;4.47;;;;;;;;;;782260;179;815792;-57
2023/07/20 03:37:17;;;;;;;7.90;4.07;;;;;;;;;;775263;179;918085;-58
2023/07/20 03:39:42;;;;;;;6.73;4.20;;;;;;;;;;768707;179;920171;-57
2023/07/20 03:42:08;;;;;;;7.60;4.53;;;;;;;;;;773736;179;919173;-58
2023/07/20 03:44:34;;;;;;;6.90;5.10;;;;;;;;;;779452;180;919095;-55
2023/07/20 03:47:00;;;;;;;8.10;4.43;;;;;;;;;;777756;179;944886;-56
2023/07/20 03:49:26;;;;;;;6.67;4.47;;;;;;;;;;773172;180;1120945;-56
2023/07/20 03:51:53;;;;;;;7.47;4.03;;;;;;;;;;774837;181;919153;-58
2023/07/20 03:54:18;;;;;;;6.43;4.40;;;;;;;;;;773387;180;917591;-58
2023/07/20 03:56:43;;;;;;;11.43;4.80;;;;;;;;;;767369;180;818039;-55
2023/07/20 03:59:09;;;;;;;10.03;4.70;;;;;;;;;;774715;180;918788;-57
2023/07/20 04:01:37;;;;;;;7.13;4.57;;;;;;;;;;776046;179;918263;-57
2023/07/20 04:04:01;;;;;;;7.62;4.18;;;;;;;;;;773619;178;919185;-58
2023/07/20 04:06:27;;;;;;;9.83;5.50;;;;;;;;;;771417;180;1056628;-55
2023/07/20 04:08:52;;;;;;;6.97;4.67;;;;;;;;;;775448;180;816673;-55
2023/07/20 04:11:18;;;;;;;9.77;4.33;;;;;;;;;;775265;180;918881;-57
2023/07/20 04:13:44;;;;;;;6.10;4.00;;;;;;;;;;775979;179;817323;-58
2023/07/20 04:16:10;;;;;;;6.87;4.37;;;;;;;;;;775900;180;916142;-57
2023/07/20 04:18:36;;;;;;;7.40;4.20;;;;;;;;;;777724;180;917401;-58
2023/07/20 04:21:02;;;;;;;10.17;5.70;;;;;;;;;;774133;180;938730;-55
2023/07/20 04:23:27;;;;;;;13.63;4.50;;;;;;;;;;778171;180;920304;-58
2023/07/20 04:25:53;;;;;;;15.03;4.37;;;;;;;;;;771342;181;924725;-58
2023/07/20 04:28:19;;;;;;;5.30;3.50;;;;;;;;;;772387;181;919426;-56
2023/07/20 04:30:45;;;;;;;7.57;4.62;;;;;;;;;;776704;180;922042;-58
2023/07/20 04:33:11;;;;;;;9.00;3.97;;;;;;;;;;773577;180;918565;-55
2023/07/20 04:35:43;;;;;;;8.80;4.50;;;;;;;;;;772082;180;920508;-58
2023/07/20 04:38:09;;;;;;;8.80;3.63;;;;;;;;;;774138;180;919534;-55
2023/07/20 04:40:35;;;;;;;6.77;4.80;;;;;;;;;;776601;180;920162;-56
2023/07/20 04:43:00;;;;;;;10.23;3.77;;;;;;;;;;776059;179;1236823;-56
2023/07/20 04:45:26;;;;;;;8.70;3.60;;;;;;;;;;773611;178;818094;-56
2023/07/20 04:47:53;;;;;;;9.05;3.97;;;;;;;;;;781368;178;923339;-55
2023/07/20 04:50:19;;;;;;;3.83;2.60;;;;;;;;;;779626;179;922657;-58
2023/07/20 04:52:46;;;;;;;5.03;3.57;;;;;;;;;;768383;181;918445;-56
2023/07/20 04:55:10;;;;;;;6.43;3.40;;;;;;;;;;773530;179;918821;-56
2023/07/20 04:57:36;;;;;;;5.43;3.10;;;;;;;;;;781085;180;916264;-55
2023/07/20 05:00:03;;;;;;;4.97;3.03;;;;;;;;;;774226;180;918774;-59
2023/07/20 05:02:28;;;;;;;4.60;2.90;;;;;;;;;;769003;180;917880;-58
2023/07/20 05:04:54;;;;;;;5.33;3.13;;;;;;;;;;778807;180;816533;-56
2023/07/20 05:07:20;;;;;;;5.23;3.07;;;;;;;;;;771552;180;920396;-56
2023/07/20 05:09:45;;;;;;;4.10;2.80;;;;;;;;;;776488;180;919413;-56
2023/07/20 05:12:12;;;;;;;4.97;3.20;;;;;;;;;;775541;180;920825;-58
2023/07/20 05:14:37;;;;;;;4.43;2.87;;;;;;;;;;774490;179;921406;-56
2023/07/20 05:17:03;;;;;;;6.17;2.90;;;;;;;;;;773242;180;918035;-58
2023/07/20 05:19:29;;;;;;;3.97;2.50;;;;;;;;;;773346;179;817368;-58
2023/07/20 05:21:55;;;;;;;4.40;2.20;;;;;;;;;;779672;179;919662;-55
2023/07/20 05:24:21;;;;;;;5.23;2.50;;;;;;;;;;775210;180;919012;-57
2023/07/20 05:26:47;;;;;;;4.60;2.50;;;;;;;;;;773186;180;883629;-58
2023/07/20 05:29:12;;;;;;;5.00;2.33;;;;;;;;;;780690;180;917345;-58
2023/07/20 05:31:38;;;;;;;4.10;2.50;;;;;;;;;;772779;179;913249;-56
2023/07/20 05:34:04;;;;;;;4.10;1.90;;;;;;;;;;771598;181;939918;-58
2023/07/20 05:36:31;;;;;;;3.87;2.23;;;;;;;;;;773498;180;919648;-59
2023/07/20 05:38:56;;;;;;;3.60;2.30;;;;;;;;;;775083;180;857722;-58
2023/07/20 05:41:22;;;;;;;4.00;2.10;;;;;;;;;;774425;179;881739;-57
2023/07/20 05:43:47;;;;;;;3.47;1.80;;;;;;;;;;771915;181;919949;-56
2023/07/20 05:46:13;;;;;;;3.47;2.10;;;;;;;;;;770301;180;914300;-59
2023/07/20 05:48:39;;;;;;;4.03;2.40;;;;;;;;;;768211;179;932507;-56
2023/07/20 05:51:05;;;;;;;4.13;1.90;;;;;;;;;;773750;181;918171;-59
2023/07/20 05:53:31;;;;;;;4.43;2.50;;;;;;;;;;778594;179;817726;-55
2023/07/20 05:55:57;;;;;;;3.30;1.90;;;;;;;;;;771181;179;1023747;-56
2023/07/20 05:58:23;;;;;;;5.33;2.27;;;;;;;;;;764995;180;927016;-58
2023/07/20 06:00:49;;;;;;;3.90;2.00;;;;;;;;;;780687;179;921216;-56
2023/07/20 06:03:16;;;;;;;5.07;2.53;;;;;;;;;;772956;178;920845;-59
2023/07/20 06:05:40;;;;;;;5.27;1.80;;;;;;;;;;773913;179;919318;-58
2023/07/20 06:08:06;;;;;;;3.10;1.80;;;;;;;;;;779241;179;921903;-59
2023/07/20 06:10:32;;;;;;;2.90;1.63;;;;;;;;;;765734;180;889927;-58
2023/07/20 06:12:58;;;;;;;3.10;1.80;;;;;;;;;;776661;178;821525;-56
2023/07/20 06:15:25;;;;;;;2.73;1.53;;;;;;;;;;770596;180;922643;-55
2023/07/20 06:17:50;;;;;;;3.27;1.80;;;;;;;;;;780679;180;920539;-58
2023/07/20 06:20:16;;;;;;;4.07;2.23;;;;;;;;;;778517;179;822862;-59
2023/07/20 06:22:42;;;;;;;6.47;2.20;;;;;;;;;;775607;180;914562;-58
2023/07/20 06:25:08;;;;;;;3.57;1.80;;;;;;;;;;777299;179;919095;-59
2023/07/20 06:27:34;;;;;;;3.70;1.97;;;;;;;;;;773495;180;919693;-59
2023/07/20 06:30:00;;;;;;;4.53;1.93;;;;;;;;;;770128;180;817090;-55
2023/07/20 06:32:25;;;;;;;3.00;1.90;;;;;;;;;;776587;180;918852;-57
2023/07/20 06:34:51;;;;;;;3.00;1.93;;;;;;;;;;773461;179;918786;-56
2023/07/20 06:37:17;;;;;;;3.87;2.03;;;;;;;;;;771772;180;910532;-57
2023/07/20 06:39:43;;;;;;;3.70;2.20;;;;;;;;;;767824;179;913315;-59
2023/07/20 06:42:09;;;;;;;3.63;2.33;;;;;;;;;;779263;179;930498;-56
2023/07/20 06:44:35;;;;;;;5.20;2.30;;;;;;;;;;775342;179;919325;-59
2023/07/20 06:47:00;;;;;;;6.37;2.70;;;;;;;;;;772579;180;868888;-56
2023/07/20 06:49:26;;;;;;;5.70;2.17;;;;;;;;;;773272;180;920540;-56
2023/07/20 06:51:52;;;;;;;4.03;2.30;;;;;;;;;;772934;180;878178;-59
2023/07/20 06:54:18;;;;;;;3.00;1.83;;;;;;;;;;773956;180;924133;-59
2023/07/20 06:56:44;;;;;;;3.50;1.83;;;;;;;;;;774567;180;919223;-56
2023/07/20 06:59:10;;;;;;;4.03;2.00;;;;;;;;;;773471;180;945659;-59
2023/07/20 07:01:36;;;;;;;3.50;2.13;;;;;;;;;;772452;180;919411;-59
2023/07/20 07:04:01;;;;;;;4.10;1.90;;;;;;;;;;775409;180;927717;-56
2023/07/20 07:06:27;;;;;;;3.60;1.87;;;;;;;;;;769688;181;916750;-58
2023/07/20 07:08:53;;;;;;;3.33;2.07;;;;;;;;;;774329;178;916154;-56
2023/07/20 07:11:19;;;;;;;3.10;1.90;;;;;;;;;;778809;179;922721;-56
2023/07/20 07:13:46;;;;;;;4.50;2.00;;;;;;;;;;780671;179;817929;-60
2023/07/20 07:16:11;;;;;;;3.67;2.17;;;;;;;;;;773021;179;918429;-59
2023/07/20 07:18:36;;;;;;;4.10;2.30;;;;;;;;;;767926;181;921180;-59
2023/07/20 07:21:02;;;;;;;5.33;2.70;;;;;;;;;;784527;180;854534;-56
2023/07/20 07:23:28;;;;;;;5.43;2.57;;;;;;;;;;776833;180;917058;-59
2023/07/20 07:25:54;;;;;;;5.27;2.40;;;;;;;;;;771935;180;919027;-56
2023/07/20 07:28:20;;;;;;;4.15;2.40;;;;;;;;;;774785;178;920888;-59
2023/07/20 07:30:46;;;;;;;3.70;2.43;;;;;;;;;;772844;181;917353;-60
2023/07/20 07:33:12;;;;;;;4.20;2.87;;;;;;;;;;772090;180;917898;-56
2023/07/20 07:35:37;;;;;;;4.80;2.83;;;;;;;;;;774366;179;818036;-57
2023/07/20 07:38:03;;;;;;;5.07;2.10;;;;;;;;;;782843;178;813660;-60
2023/07/20 07:40:29;;;;;;;4.53;3.03;;;;;;;;;;771944;180;915153;-56
2023/07/20 07:42:55;;;;;;;4.30;2.70;;;;;;;;;;768931;180;918401;-56
2023/07/20 07:45:21;;;;;;;5.50;2.57;;;;;;;;;;773537;180;936716;-60
2023/07/20 07:47:47;;;;;;;3.73;2.60;;;;;;;;;;759707;181;932021;-56
2023/07/20 07:50:13;;;;;;;7.47;3.20;;;;;;;;;;771347;180;915705;-57
2023/07/20 07:52:40;;;;;;;3.50;2.40;;;;;;;;;;772965;181;922470;-56
2023/07/20 07:55:07;;;;;;;5.90;2.83;;;;;;;;;;783947;180;919116;-60
2023/07/20 07:57:35;;;;;;;5.93;2.83;;;;;;;;;;770497;180;919426;-59
2023/07/20 08:00:03;;;;;;;5.70;2.72;;;;;;;;;;773191;180;920456;-60
2023/07/20 08:02:28;;;;;;;6.83;3.10;;;;;;;;;;773868;178;816803;-59
2023/07/20 08:04:54;;;;;;;4.57;2.93;;;;;;;;;;775829;180;919307;-60
2023/07/20 08:07:19;;;;;;;9.63;4.17;;;;;;;;;;769387;180;918066;-59
2023/07/20 08:09:45;;;;;;;4.13;2.33;;;;;;;;;;774939;180;895820;-57
2023/07/20 08:12:11;;;;;;;9.20;2.60;;;;;;;;;;771979;180;921411;-57
2023/07/20 08:14:37;;;;;;;7.07;2.40;;;;;;;;;;770932;180;918955;-59
2023/07/20 08:17:03;;;;;;;4.27;3.03;;;;;;;;;;768104;180;921729;-57
2023/07/20 08:19:29;;;;;;;4.80;3.17;;;;;;;;;;772790;181;921116;-59
2023/07/20 08:21:54;;;;;;;3.47;2.20;;;;;;;;;;769382;179;922176;-56
2023/07/20 08:24:20;;;;;;;6.13;2.60;;;;;;;;;;769648;179;935795;-60
2023/07/20 08:26:46;;;;;;;4.10;2.83;;;;;;;;;;778368;179;919879;-56
2023/07/20 08:29:12;;;;;;;7.53;2.70;;;;;;;;;;769977;179;921563;-57
2023/07/20 08:31:38;;;;;;;6.28;2.97;;;;;;;;;;776729;180;914989;-59
2023/07/20 08:34:04;;;;;;;7.33;2.57;;;;;;;;;;777615;180;916793;-57
2023/07/20 08:36:31;;;;;;;5.23;2.80;;;;;;;;;;772257;178;922648;-60
2023/07/20 08:38:55;;;;;;;4.60;2.87;;;;;;;;;;764310;180;919528;-59
2023/07/20 08:41:22;;;;;;;4.57;2.90;;;;;;;;;;773076;180;918935;-59
2023/07/20 08:43:47;;;;;;;5.03;3.43;;;;;;;;;;771496;180;817078;-59
2023/07/20 08:46:14;;;;;;;10.70;2.70;;;;;;;;;;776398;179;817268;-56
2023/07/20 08:48:39;;;;;;;3.17;2.23;;;;;;;;;;777043;180;816538;-57
2023/07/20 08:51:05;;;;;;;5.10;2.60;;;;;;;;;;779292;180;919109;-59
2023/07/20 08:53:31;;;;;;;5.80;3.53;;;;;;;;;;772640;180;919438;-61
2023/07/20 08:55:57;;;;;;;4.25;2.62;;;;;;;;;;772844;180;919549;-57
2023/07/20 08:58:22;;;;;;;5.23;3.10;;;;;;;;;;779904;179;919693;-60
2023/07/20 09:00:50;;;;;;;6.17;3.00;;;;;;;;;;772751;180;918045;-60
2023/07/20 09:03:14;;;;;;;4.20;2.80;;;;;;;;;;767086;179;919821;-59
2023/07/20 09:05:40;;;;;;;5.00;2.80;;;;;;;;;;778561;180;917678;-60
2023/07/20 09:08:06;;;;;;;3.70;2.50;;;;;;;;;;771981;179;922791;-59
2023/07/20 09:10:32;;;;;;;4.70;2.70;;;;;;;;;;771001;179;921978;-56
2023/07/20 09:12:57;;;;;;;7.03;2.40;;;;;;;;;;773043;180;919877;-59
2023/07/20 09:15:23;;;;;;;5.30;2.80;;;;;;;;;;778255;180;813700;-59
2023/07/20 09:17:49;;;;;;;4.57;2.67;;;;;;;;;;774571;180;919404;-60
2023/07/20 09:20:15;;;;;;;3.77;2.27;;;;;;;;;;773180;179;918601;-61
2023/07/20 09:22:41;;;;;;;4.07;2.50;;;;;;;;;;778970;179;913810;-60
2023/07/20 09:25:13;;;;;;;5.17;3.03;;;;;;;;;;773598;179;920676;-59
2023/07/20 09:27:38;;;;;;;3.43;2.07;;;;;;;;;;774497;179;920223;-57
2023/07/20 09:30:04;;;;;;;3.80;2.70;;;;;;;;;;769775;179;918859;-56
2023/07/20 09:32:30;;;;;;;8.83;3.07;;;;;;;;;;773583;180;919405;-60
2023/07/20 09:34:56;;;;;;;4.90;2.27;;;;;;;;;;775905;179;924111;-62
2023/07/20 09:37:22;;;;;;;4.22;2.53;;;;;;;;;;775409;179;919806;-58
2023/07/20 09:39:49;;;;;;;5.40;2.63;;;;;;;;;;774040;180;919315;-58
2023/07/20 09:42:14;;;;;;;4.07;2.47;;;;;;;;;;775704;179;919946;-60
2023/07/20 09:44:40;;;;;;;3.93;2.50;;;;;;;;;;776459;179;919678;-59
2023/07/20 09:47:06;;;;;;;4.10;2.63;;;;;;;;;;774656;180;916483;-57
2023/07/20 09:49:32;;;;;;;7.33;2.50;;;;;;;;;;772350;180;914907;-59
2023/07/20 09:52:00;;;;;;;5.53;2.90;;;;;;;;;;772330;180;942197;-59
2023/07/20 09:54:24;;;;;;;4.73;2.53;;;;;;;;;;773332;180;917375;-58
2023/07/20 09:56:50;;;;;;;5.00;2.40;;;;;;;;;;767291;180;916968;-56
2023/07/20 09:59:16;;;;;;;6.03;2.37;;;;;;;;;;770837;180;918363;-58
2023/07/20 10:01:42;;;;;;;5.47;2.27;;;;;;;;;;775507;179;920621;-61
2023/07/20 10:04:08;;;;;;;3.80;2.20;;;;;;;;;;779028;180;918852;-56
2023/07/20 10:06:33;;;;;;;4.43;2.13;;;;;;;;;;777499;179;913892;-57
2023/07/20 10:08:59;;;;;;;7.70;3.50;;;;;;;;;;774964;180;899845;-57
2023/07/20 10:11:25;;;;;;;3.87;2.47;;;;;;;;;;774391;179;909737;-60
2023/07/20 10:13:51;;;;;;;3.20;2.37;;;;;;;;;;768943;180;920932;-60
2023/07/20 10:16:19;;;;;;;5.70;2.83;;;;;;;;;;772470;179;918022;-57
2023/07/20 10:18:48;;;;;;;3.43;2.17;;;;;;;;;;775877;179;920081;-57
2023/07/20 10:21:13;;;;;;;6.77;2.07;;;;;;;;;;771408;181;918056;-60
2023/07/20 10:23:38;;;;;;;10.50;2.50;;;;;;;;;;763665;181;918838;-57
2023/07/20 10:26:04;;;;;;;10.13;2.40;;;;;;;;;;769253;180;917718;-60
2023/07/20 10:28:30;;;;;;;4.30;2.53;;;;;;;;;;775189;181;920827;-57
2023/07/20 10:30:56;;;;;;;6.70;2.83;;;;;;;;;;776008;179;919370;-57
2023/07/20 10:33:22;;;;;;;5.23;2.40;;;;;;;;;;772829;180;924054;-57
2023/07/20 10:35:50;;;;;;;4.70;2.70;;;;;;;;;;776184;180;921936;-57
2023/07/20 10:38:16;;;;;;;6.70;2.83;;;;;;;;;;774748;179;922136;-57
2023/07/20 10:40:42;;;;;;;3.00;2.17;;;;;;;;;;773509;180;924551;-57
2023/07/20 10:43:08;;;;;;;4.53;2.73;;;;;;;;;;771112;181;919363;-60
2023/07/20 10:45:42;;;;;;;3.50;2.20;;;;;;;;;;778037;179;894100;-60
2023/07/20 10:48:12;;;;;;;5.13;2.40;;;;;;;;;;773758;179;929016;-56
2023/07/20 10:50:38;;;;;;;4.30;2.43;;;;;;;;;;768623;179;976390;-56
2023/07/20 10:53:05;;;;;;;3.37;1.98;;;;;;;;;;768892;179;937411;-56
2023/07/20 10:55:30;;;;;;;3.63;2.20;;;;;;;;;;780438;178;871570;-57
2023/07/20 10:58:11;;;;;;;4.53;2.30;;;;;;;;;;775853;180;816343;-56
2023/07/20 11:00:37;;;;;;;4.40;2.40;;;;;;;;;;776014;180;894412;-57
2023/07/20 11:03:03;;;;;;;4.37;2.90;;;;;;;;;;773843;180;939246;-57
2023/07/20 11:05:31;;;;;;;4.53;2.13;;;;;;;;;;776152;180;919472;-57
2023/07/20 11:07:57;;;;;;;3.17;2.10;;;;;;;;;;772615;179;903388;-57
2023/07/20 11:10:23;;;;;;;4.10;1.83;;;;;;;;;;775589;179;920492;-57
2023/07/20 11:13:06;;;;;;;4.40;2.20;;;;;;;;;;772712;180;623682;-61
2023/07/20 11:15:30;;;;;;;6.13;2.60;;;;;;;;;;768355;179;922287;-60
2023/07/20 11:17:57;;;;;;;7.10;2.13;;;;;;;;;;768758;180;819748;-58
2023/07/20 11:20:22;;;;;;;3.97;1.67;;;;;;;;;;772663;180;919329;-59
2023/07/20 11:22:48;;;;;;;3.10;1.93;;;;;;;;;;773750;180;920014;-55
2023/07/20 11:25:14;;;;;;;3.37;2.00;;;;;;;;;;779225;180;919200;-56
2023/07/20 11:27:39;;;;;;;5.30;2.00;;;;;;;;;;768307;180;919640;-59
2023/07/20 11:30:06;;;;;;;4.25;1.95;;;;;;;;;;761792;181;919997;-60
2023/07/20 11:32:32;;;;;;;9.23;2.00;;;;;;;;;;773998;180;919537;-60
2023/07/20 11:37:51;;;;;;;3.00;2.00;;;;;;;;;;775163;180;816774;-57
2023/07/20 11:40:17;;;;;;;3.27;1.87;;;;;;;;;;773523;180;940041;-56
2023/07/20 11:42:42;;;;;;;3.20;2.00;;;;;;;;;;777686;180;814104;-59
2023/07/20 11:45:09;;;;;;;5.60;2.20;;;;;;;;;;782097;180;623626;-59
2023/07/20 11:47:34;;;;;;;4.60;2.10;;;;;;;;;;770513;181;912028;-56
2023/07/20 11:50:03;;;;;;;4.03;2.10;;;;;;;;;;771243;180;934469;-57
2023/07/20 11:52:29;;;;;;;3.70;2.40;;;;;;;;;;769049;179;927541;-59
2023/07/20 11:54:55;;;;;;;5.03;1.83;;;;;;;;;;776946;178;916960;-59
2023/07/20 11:57:21;;;;;;;3.07;1.77;;;;;;;;;;777665;179;912967;-59
2023/07/20 11:59:52;;;;;;;3.83;1.93;;;;;;;;;;770569;179;919768;-56
2023/07/20 12:02:18;;;;;;;3.90;2.10;;;;;;;;;;779706;179;895196;-60
2023/07/20 12:04:44;;;;;;;6.27;2.07;;;;;;;;;;772894;179;913683;-59
2023/07/20 12:07:10;;;;;;;5.90;2.50;;;;;;;;;;776915;179;748445;-56
2023/07/20 12:09:36;;;;;;;3.20;2.20;;;;;;;;;;774679;180;924289;-59
2023/07/20 12:12:02;;;;;;;3.97;2.33;;;;;;;;;;779016;180;919295;-58
2023/07/20 12:14:28;;;;;;;3.90;2.03;;;;;;;;;;775686;180;920763;-58
2023/07/20 12:16:54;;;;;;;8.00;2.10;;;;;;;;;;775599;180;918862;-55
2023/07/20 12:19:20;;;;;;;3.90;2.13;;;;;;;;;;777807;179;918530;-55
2023/07/20 12:21:46;;;;;;;2.93;1.83;;;;;;;;;;769319;179;919066;-58
2023/07/20 12:24:12;;;;;;;3.50;2.47;;;;;;;;;;775745;180;919468;-55
2023/07/20 12:26:38;;;;;;;5.03;2.30;;;;;;;;;;779264;178;919821;-59
2023/07/20 12:29:04;;;;;;;4.30;2.10;;;;;;;;;;774508;180;920092;-58
2023/07/20 12:31:29;;;;;;;5.50;2.30;;;;;;;;;;772451;180;919346;-58
2023/07/20 12:33:55;;;;;;;6.55;2.50;;;;;;;;;;777757;180;918954;-55
2023/07/20 12:36:21;;;;;;;4.00;2.33;;;;;;;;;;774339;180;917681;-55
2023/07/20 12:38:47;;;;;;;4.77;2.40;;;;;;;;;;772150;180;915979;-57
2023/07/20 12:41:13;;;;;;;6.80;2.23;;;;;;;;;;769676;179;980642;-56
2023/07/20 12:43:39;;;;;;;5.57;2.57;;;;;;;;;;776728;181;919468;-58
2023/07/20 12:46:04;;;;;;;6.47;2.97;;;;;;;;;;768114;179;1014940;-58
2023/07/20 12:48:30;;;;;;;5.93;2.20;;;;;;;;;;767889;180;922248;-60
2023/07/20 12:50:56;;;;;;;5.37;2.47;;;;;;;;;;766678;179;818671;-57
2023/07/20 12:53:22;;;;;;;3.50;1.97;;;;;;;;;;770175;180;822552;-58
2023/07/20 12:55:48;;;;;;;6.33;2.43;;;;;;;;;;775816;179;921019;-57
2023/07/20 12:58:14;;;;;;;4.63;2.43;;;;;;;;;;775821;180;916549;-58
2023/07/20 13:00:40;;;;;;;8.40;2.90;;;;;;;;;;774465;179;919502;-56
2023/07/20 13:03:06;;;;;;;5.90;2.40;;;;;;;;;;771889;181;919983;-56
2023/07/20 13:05:32;;;;;;;3.90;2.10;;;;;;;;;;774911;181;846457;-59
2023/07/20 13:07:58;;;;;;;4.80;1.87;;;;;;;;;;769458;180;895288;-57
2023/07/20 13:10:24;;;;;;;4.33;1.83;;;;;;;;;;774014;180;916310;-59
2023/07/20 13:12:49;;;;;;;4.77;2.20;;;;;;;;;;775608;179;919574;-58
2023/07/20 13:15:15;;;;;;;4.00;2.10;;;;;;;;;;779213;179;876220;-56
2023/07/20 13:17:41;;;;;;;4.00;1.87;;;;;;;;;;777007;180;919936;-56
2023/07/20 13:20:09;;;;;;;4.13;2.40;;;;;;;;;;775440;180;919898;-59
2023/07/20 13:22:34;;;;;;;3.03;1.93;;;;;;;;;;774090;180;919284;-56
2023/07/20 13:24:59;;;;;;;3.27;1.77;;;;;;;;;;771740;180;919902;-56
2023/07/20 13:27:26;;;;;;;4.07;2.20;;;;;;;;;;771791;181;920508;-59
2023/07/20 13:29:52;;;;;;;3.50;1.70;;;;;;;;;;773050;180;918666;-60
2023/07/20 13:32:18;;;;;;;2.50;1.50;;;;;;;;;;773053;180;882791;-59
2023/07/20 13:34:44;;;;;;;3.73;2.07;;;;;;;;;;769621;180;922434;-59
2023/07/20 13:37:10;;;;;;;3.03;1.73;;;;;;;;;;775297;180;920853;-57
2023/07/20 13:39:35;;;;;;;2.97;1.80;;;;;;;;;;773351;178;919255;-56
2023/07/20 13:42:04;;;;;;;3.50;1.60;;;;;;;;;;769454;180;921870;-56
2023/07/20 13:44:28;;;;;;;2.33;1.27;;;;;;;;;;777286;180;919220;-57
2023/07/20 13:46:54;;;;;;;2.80;1.83;;;;;;;;;;777483;181;918833;-57
2023/07/20 13:49:20;;;;;;;3.10;1.63;;;;;;;;;;772020;180;919500;-57
2023/07/20 13:51:45;;;;;;;2.23;1.33;;;;;;;;;;772196;180;883297;-57
2023/07/20 13:54:11;;;;;;;2.80;1.77;;;;;;;;;;770487;180;916760;-61
2023/07/20 13:56:37;;;;;;;3.47;1.70;;;;;;;;;;775871;179;917103;-60
2023/07/20 13:59:03;;;;;;;5.33;1.80;;;;;;;;;;770289;180;919086;-60
2023/07/20 14:01:30;;;;;;;2.87;1.60;;;;;;;;;;774969;180;919626;-59
2023/07/20 14:03:55;;;;;;;4.33;2.30;;;;;;;;;;782150;180;821477;-60
2023/07/20 14:06:21;;;;;;;3.10;1.73;;;;;;;;;;768858;179;918218;-57
2023/07/20 14:08:48;;;;;;;2.43;1.30;;;;;;;;;;764917;179;920339;-60
2023/07/20 14:11:13;;;;;;;3.97;1.93;;;;;;;;;;774998;180;921450;-60
2023/07/20 14:13:39;;;;;;;13.00;2.47;;;;;;;;;;773047;179;854605;-57
2023/07/20 14:16:05;;;;;;;3.20;1.80;;;;;;;;;;773571;179;919077;-56
2023/07/20 14:18:30;;;;;;;4.33;1.77;;;;;;;;;;775229;179;841514;-62
2023/07/20 14:20:56;;;;;;;2.93;1.60;;;;;;;;;;773057;180;814629;-61
2023/07/20 14:23:22;;;;;;;3.30;1.53;;;;;;;;;;776188;179;918932;-58